Private Wetterstation Wechselburg
Wetterdaten: Montag, 25.01.2016
Datum Zeit Temp. +2m Bodentemp. Temp.+5cm Temp. Wind Windchill X Diff Temp. Feuchte +2m Feuchte +5cm Sonnenschein Luftdruck Regen Wind Richtung Richtung Sonnenschein Taupunkt Windchill Windben
25.01.2016 00:00 2,7 C 17,9 C 3,4 C 2,8 C 2,8 C 0,1 C 88 % 88 % 0 % 1029,6 hPa 0,0 l/m 4,0 km/h (1 Bft) W-SW 247 0 min 0,9 C 2,8 C 5,8 km/h (2 Bft)
25.01.2016 00:05 2,7 C 17,9 C 3,3 C 2,8 C 2,8 C 0,1 C 88 % 88 % 0 % 1029,6 hPa 0,0 l/m 4,0 km/h (1 Bft) W-SW 247 0 min 0,9 C 2,8 C 7,1 km/h (2 Bft)
25.01.2016 00:10 2,6 C 17,9 C 3,3 C 2,9 C 2,9 C 0,3 C 88 % 88 % 0 % 1029,6 hPa 0,0 l/m 3,9 km/h (1 Bft) W-SW 247 0 min 0,8 C 2,9 C 4,5 km/h (1 Bft)
25.01.2016 00:15 2,5 C 17,9 C 3,3 C 2,7 C 2,7 C 0,2 C 88 % 87 % 0 % 1029,6 hPa 0,0 l/m 4,2 km/h (1 Bft) O-NO 67 0 min 0,7 C 2,7 C 4,2 km/h (1 Bft)
25.01.2016 00:20 2,6 C 17,9 C 3,3 C 2,8 C 2,8 C 0,2 C 88 % 87 % 0 % 1029,6 hPa 0,0 l/m 4,0 km/h (1 Bft) S-SO 157 0 min 0,8 C 2,8 C 4,8 km/h (1 Bft)
25.01.2016 00:25 2,7 C 17,9 C 3,3 C 2,9 C 2,9 C 0,2 C 88 % 87 % 0 % 1029,6 hPa 0,0 l/m 4,0 km/h (1 Bft) W-SW 247 0 min 0,9 C 2,9 C 11,1 km/h (2 Bft)
25.01.2016 00:30 2,7 C 17,9 C 3,5 C 3,2 C 3,2 C 0,5 C 89 % 87 % 0 % 1029,6 hPa 0,0 l/m 3,5 km/h (1 Bft) S-SO 157 0 min 1,1 C 3,2 C 5,8 km/h (2 Bft)
25.01.2016 00:35 2,7 C 17,9 C 3,3 C 3,2 C 3,2 C 0,5 C 89 % 87 % 0 % 1029,6 hPa 0,0 l/m 3,5 km/h (1 Bft) NW 315 0 min 1,1 C 3,2 C 2,6 km/h (1 Bft)
25.01.2016 00:41 2,7 C 17,9 C 3,3 C 3,6 C 3,6 C 0,9 C 89 % 87 % 0 % 1029,6 hPa 0,0 l/m 2,7 km/h (1 Bft) N 0 0 min 1,1 C 3,6 C 11,6 km/h (2 Bft)
25.01.2016 00:50 2,7 C 17,9 C 3,5 C 3,4 C 3,4 C 0,7 C 89 % 86 % 0 % 1029,6 hPa 0,0 l/m 3,1 km/h (1 Bft) SO 135 0 min 1,1 C 3,4 C 4,3 km/h (1 Bft)
25.01.2016 00:55 2,7 C 17,9 C 3,4 C 3,2 C 3,2 C 0,5 C 89 % 86 % 0 % 1029,6 hPa 0,0 l/m 3,5 km/h (1 Bft) NW 315 0 min 1,1 C 3,2 C 6,8 km/h (2 Bft)
25.01.2016 01:00 2,7 C 17,9 C 3,3 C 3,6 C 3,6 C 0,9 C 89 % 86 % 0 % 1029,6 hPa 0,0 l/m 2,9 km/h (1 Bft) S-SO 157 0 min 1,1 C 3,6 C 2,7 km/h (1 Bft)
25.01.2016 01:05 2,7 C 17,9 C 3,3 C 3,6 C 3,6 C 0,9 C 89 % 85 % 0 % 1029,6 hPa 0,0 l/m 2,9 km/h (1 Bft) S-SO 157 0 min 1,1 C 3,6 C 3,5 km/h (1 Bft)
25.01.2016 01:10 2,8 C 17,9 C 3,3 C 3,7 C 3,7 C 0,9 C 89 % 85 % 0 % 1029,6 hPa 0,0 l/m 2,7 km/h (1 Bft) S 180 0 min 1,2 C 3,7 C 1,9 km/h (1 Bft)
25.01.2016 01:15 2,9 C 17,9 C 3,3 C 3,6 C 3,6 C 0,7 C 89 % 85 % 0 % 1029,6 hPa 0,0 l/m 3,1 km/h (1 Bft) S 180 0 min 1,3 C 3,6 C 4,3 km/h (1 Bft)
25.01.2016 01:20 2,9 C 17,9 C 3,5 C 3,3 C 3,3 C 0,4 C 89 % 84 % 0 % 1029,6 hPa 0,0 l/m 3,7 km/h (1 Bft) N-NO 22 0 min 1,3 C 3,3 C 2,4 km/h (1 Bft)
25.01.2016 01:25 2,9 C 17,9 C 3,5 C 3,2 C 3,2 C 0,3 C 89 % 84 % 0 % 1029,6 hPa 0,0 l/m 3,9 km/h (1 Bft) S-SO 157 0 min 1,3 C 3,2 C 14,3 km/h (3 Bft)
25.01.2016 01:30 2,8 C 18,0 C 3,5 C 3,6 C 3,6 C 0,8 C 89 % 84 % 0 % 1027,6 hPa 0,0 l/m 3,1 km/h (1 Bft) O-SO 112 0 min 1,2 C 3,6 C 2,9 km/h (1 Bft)
25.01.2016 01:35 2,8 C 18,0 C 3,3 C 3,8 C 3,8 C 1,0 C 89 % 84 % 0 % 1027,6 hPa 0,0 l/m 2,6 km/h (1 Bft) W 270 0 min 1,2 C 3,8 C 3,5 km/h (1 Bft)
25.01.2016 01:40 2,8 C 18,0 C 3,3 C 3,7 C 3,7 C 0,9 C 89 % 83 % 0 % 1027,6 hPa 0,0 l/m 2,9 km/h (1 Bft) SW 225 0 min 1,2 C 3,7 C 3,9 km/h (1 Bft)
25.01.2016 01:45 2,8 C 18,0 C 3,3 C 3,7 C 3,7 C 0,9 C 89 % 83 % 0 % 1027,6 hPa 0,0 l/m 2,9 km/h (1 Bft) W 270 0 min 1,2 C 3,7 C 5,1 km/h (1 Bft)
25.01.2016 01:50 2,8 C 18,0 C 3,5 C 3,6 C 3,6 C 0,8 C 89 % 83 % 0 % 1027,6 hPa 0,0 l/m 3,2 km/h (1 Bft) NW 315 0 min 1,2 C 3,6 C 2,9 km/h (1 Bft)
25.01.2016 01:55 2,9 C 18,0 C 3,4 C 3,6 C 3,6 C 0,7 C 89 % 83 % 0 % 1027,6 hPa 0,0 l/m 3,4 km/h (1 Bft) W-SW 247 0 min 1,3 C 3,6 C 6,9 km/h (2 Bft)
25.01.2016 02:00 2,9 C 18,0 C 3,3 C 3,8 C 3,8 C 0,9 C 89 % 82 % 0 % 1027,6 hPa 0,0 l/m 3,1 km/h (1 Bft) S 180 0 min 1,3 C 3,8 C 1,6 km/h (1 Bft)
25.01.2016 02:05 2,9 C 18,0 C 3,3 C 3,9 C 3,9 C 1,0 C 89 % 82 % 0 % 1027,6 hPa 0,0 l/m 2,3 km/h (1 Bft) SO 135 0 min 1,3 C 3,9 C 4,2 km/h (1 Bft)
25.01.2016 02:10 2,9 C 18,0 C 3,3 C 3,9 C 3,9 C 1,0 C 89 % 82 % 0 % 1027,6 hPa 0,7 l/m 1,8 km/h (1 Bft) NO 45 0 min 1,3 C 3,9 C 0,0 km/h (0 Bft)
25.01.2016 02:15 2,9 C 18,0 C 3,4 C 3,9 C 3,9 C 1,0 C 89 % 82 % 0 % 1027,6 hPa 0,0 l/m 1,8 km/h (1 Bft) SW 225 0 min 1,3 C 3,9 C 0,0 km/h (0 Bft)
25.01.2016 02:20 3,0 C 18,0 C 3,5 C 4,0 C 4,0 C 1,0 C 89 % 82 % 0 % 1027,6 hPa 0,0 l/m 1,3 km/h (1 Bft) S-SW 202 0 min 1,4 C 4,0 C 3,5 km/h (1 Bft)
25.01.2016 02:25 3,1 C 18,0 C 3,4 C 4,0 C 4,0 C 0,9 C 89 % 82 % 0 % 1027,6 hPa 0,0 l/m 1,9 km/h (1 Bft) S 180 0 min 1,5 C 4,0 C 4,3 km/h (1 Bft)
25.01.2016 02:30 3,2 C 18,0 C 3,5 C 3,8 C 3,8 C 0,6 C 90 % 81 % 0 % 1027,6 hPa 0,0 l/m 3,5 km/h (1 Bft) S 180 0 min 1,7 C 3,8 C 6,3 km/h (2 Bft)
25.01.2016 02:35 3,2 C 18,0 C 3,5 C 3,5 C 3,5 C 0,3 C 90 % 81 % 0 % 1027,6 hPa 0,0 l/m 4,0 km/h (1 Bft) S-SO 157 0 min 1,7 C 3,5 C 5,5 km/h (1 Bft)
25.01.2016 02:40 3,3 C 18,0 C 3,5 C 4,1 C 4,1 C 0,8 C 90 % 81 % 0 % 1027,6 hPa 0,0 l/m 3,1 km/h (1 Bft) S-SW 202 0 min 1,8 C 4,1 C 4,7 km/h (1 Bft)
25.01.2016 02:45 3,3 C 18,0 C 3,5 C 4,2 C 4,2 C 0,9 C 90 % 81 % 0 % 1027,6 hPa 0,0 l/m 2,4 km/h (1 Bft) S 180 0 min 1,8 C 4,2 C 2,6 km/h (1 Bft)
25.01.2016 02:50 3,2 C 18,1 C 3,5 C 4,2 C 4,2 C 1,0 C 90 % 81 % 0 % 1027,6 hPa 0,0 l/m 1,9 km/h (1 Bft) O-NO 67 0 min 1,7 C 4,2 C 1,9 km/h (1 Bft)
25.01.2016 02:55 3,2 C 18,0 C 3,5 C 4,2 C 4,2 C 1,0 C 90 % 81 % 0 % 1027,6 hPa 0,0 l/m 1,4 km/h (1 Bft) O-SO 112 0 min 1,7 C 4,2 C 0,0 km/h (0 Bft)
25.01.2016 03:00 3,2 C 18,1 C 3,5 C 4,3 C 4,3 C 1,1 C 90 % 81 % 0 % 1027,6 hPa 0,0 l/m 1,0 km/h (0 Bft) W-SW 247 0 min 1,7 C 4,3 C 0,0 km/h (0 Bft)
25.01.2016 03:05 3,2 C 18,0 C 3,5 C 4,3 C 4,3 C 1,1 C 90 % 81 % 0 % 1027,6 hPa 0,0 l/m 0,6 km/h (0 Bft) S 180 0 min 1,7 C 4,3 C 2,4 km/h (1 Bft)
25.01.2016 03:10 3,3 C 18,1 C 3,5 C 4,3 C 4,3 C 1,0 C 90 % 81 % 0 % 1026,7 hPa 0,0 l/m 0,3 km/h (0 Bft) O-NO 67 0 min 1,8 C 4,3 C 0,0 km/h (0 Bft)
25.01.2016 03:15 3,2 C 18,1 C 3,4 C 4,3 C 4,3 C 1,1 C 90 % 81 % 0 % 1026,7 hPa 0,0 l/m 0,2 km/h (0 Bft) O-SO 112 0 min 1,7 C 4,3 C 0,0 km/h (0 Bft)
25.01.2016 03:20 3,1 C 18,1 C 3,2 C 4,3 C 4,3 C 1,2 C 90 % 81 % 0 % 1026,7 hPa 0,0 l/m 0,0 km/h (0 Bft) N-NO 22 0 min 1,6 C 4,3 C 0,0 km/h (0 Bft)
25.01.2016 03:25 3,1 C 18,1 C 3,2 C 4,2 C 4,2 C 1,1 C 89 % 81 % 0 % 1026,7 hPa 0,0 l/m 0,0 km/h (0 Bft) S-SO 157 0 min 1,5 C 4,2 C 0,0 km/h (0 Bft)
25.01.2016 03:30 3,1 C 18,1 C 3,3 C 4,3 C 4,3 C 1,2 C 90 % 81 % 0 % 1026,7 hPa 0,0 l/m 0,2 km/h (0 Bft) NW 315 0 min 1,6 C 4,3 C 0,0 km/h (0 Bft)
25.01.2016 03:35 3,3 C 18,1 C 3,3 C 4,4 C 4,4 C 1,1 C 90 % 81 % 0 % 1026,7 hPa 0,0 l/m 0,6 km/h (0 Bft) W-SW 247 0 min 1,8 C 4,4 C 3,1 km/h (1 Bft)
25.01.2016 03:41 3,4 C 18,0 C 3,5 C 4,5 C 4,5 C 1,1 C 90 % 80 % 0 % 1026,7 hPa 0,0 l/m 1,6 km/h (1 Bft) N 0 0 min 1,9 C 4,5 C 3,4 km/h (1 Bft)
25.01.2016 03:50 3,7 C 18,0 C 3,9 C 4,5 C 4,5 C 0,8 C 90 % 79 % 0 % 1026,7 hPa 0,0 l/m 3,4 km/h (1 Bft) W-SW 247 0 min 2,2 C 4,5 C 5,1 km/h (1 Bft)
25.01.2016 03:55 3,6 C 18,0 C 3,9 C 4,2 C 4,2 C 0,6 C 90 % 79 % 0 % 1026,7 hPa 0,0 l/m 4,0 km/h (1 Bft) W-SW 247 0 min 2,1 C 4,2 C 6,4 km/h (2 Bft)
25.01.2016 04:00 3,8 C 18,0 C 3,9 C 4,4 C 4,4 C 0,6 C 90 % 78 % 0 % 1026,7 hPa 0,0 l/m 4,2 km/h (1 Bft) W-SW 247 0 min 2,3 C 4,4 C 5,1 km/h (1 Bft)
25.01.2016 04:05 3,9 C 18,0 C 3,9 C 4,7 C 4,7 C 0,8 C 90 % 78 % 0 % 1026,7 hPa 0,0 l/m 3,5 km/h (1 Bft) S-SW 202 0 min 2,4 C 4,7 C 3,1 km/h (1 Bft)
25.01.2016 04:10 3,9 C 18,0 C 4,0 C 5,0 C 5,0 C 1,1 C 90 % 78 % 0 % 1026,3 hPa 0,0 l/m 1,6 km/h (1 Bft) SW 225 0 min 2,4 C 5,0 C 2,6 km/h (1 Bft)
25.01.2016 04:15 3,8 C 18,0 C 4,0 C 5,0 C 5,0 C 1,2 C 90 % 78 % 0 % 1026,3 hPa 0,0 l/m 0,8 km/h (0 Bft) W-SW 247 0 min 2,3 C 5,0 C 2,6 km/h (1 Bft)
25.01.2016 04:20 3,9 C 18,0 C 4,1 C 5,0 C 5,0 C 1,1 C 90 % 78 % 0 % 1026,3 hPa 0,0 l/m 1,4 km/h (1 Bft) S-SW 202 0 min 2,4 C 5,0 C 4,5 km/h (1 Bft)
25.01.2016 04:25 3,8 C 18,0 C 4,1 C 5,0 C 5,0 C 1,2 C 90 % 78 % 0 % 1026,3 hPa 0,0 l/m 2,3 km/h (1 Bft) W-SW 247 0 min 2,3 C 5,0 C 3,1 km/h (1 Bft)
25.01.2016 04:30 3,9 C 17,9 C 4,0 C 4,9 C 4,9 C 1,0 C 90 % 78 % 0 % 1026,3 hPa 0,0 l/m 3,1 km/h (1 Bft) W-SW 247 0 min 2,4 C 4,9 C 4,5 km/h (1 Bft)
25.01.2016 04:35 4,0 C 17,9 C 4,1 C 4,8 C 4,8 C 0,8 C 90 % 78 % 0 % 1026,3 hPa 0,0 l/m 3,4 km/h (1 Bft) SW 225 0 min 2,5 C 4,8 C 4,5 km/h (1 Bft)
25.01.2016 04:40 4,0 C 17,9 C 4,1 C 4,8 C 4,8 C 0,8 C 90 % 78 % 0 % 1026,3 hPa 0,0 l/m 3,5 km/h (1 Bft) SW 225 0 min 2,5 C 4,8 C 2,9 km/h (1 Bft)
25.01.2016 04:45 4,0 C 17,9 C 4,3 C 4,6 C 4,6 C 0,6 C 90 % 78 % 0 % 1026,3 hPa 0,0 l/m 4,0 km/h (1 Bft) W-SW 247 0 min 2,5 C 4,6 C 7,7 km/h (2 Bft)
25.01.2016 04:50 4,1 C 17,9 C 4,3 C 4,5 C 4,5 C 0,4 C 90 % 77 % 0 % 1026,8 hPa 0,0 l/m 4,5 km/h (1 Bft) W-SW 247 0 min 2,6 C 4,5 C 8,9 km/h (2 Bft)
25.01.2016 04:55 4,1 C 17,9 C 4,4 C 4,4 C 4,4 C 0,3 C 90 % 77 % 0 % 1026,8 hPa 0,0 l/m 4,7 km/h (1 Bft) S-SW 202 0 min 2,6 C 3,5 C 4,8 km/h (1 Bft)
25.01.2016 05:00 4,2 C 17,9 C 4,4 C 4,4 C 4,4 C 0,2 C 90 % 77 % 0 % 1026,8 hPa 0,0 l/m 4,7 km/h (1 Bft) W 270 0 min 2,7 C 3,5 C 6,8 km/h (2 Bft)
25.01.2016 05:05 4,3 C 17,9 C 4,4 C 4,3 C 4,3 C 0,0 C 90 % 77 % 0 % 1026,8 hPa 0,0 l/m 5,0 km/h (1 Bft) SW 225 0 min 2,8 C 3,3 C 6,8 km/h (2 Bft)
25.01.2016 05:10 4,3 C 17,9 C 4,5 C 4,3 C 4,3 C 0,0 C 90 % 77 % 0 % 1026,8 hPa 0,0 l/m 5,1 km/h (1 Bft) S-SW 202 0 min 2,8 C 3,2 C 4,2 km/h (1 Bft)
25.01.2016 05:15 4,3 C 17,9 C 4,4 C 4,4 C 4,4 C 0,1 C 90 % 77 % 0 % 1026,8 hPa 0,0 l/m 4,7 km/h (1 Bft) SW 225 0 min 2,8 C 3,5 C 2,9 km/h (1 Bft)
25.01.2016 05:20 4,2 C 17,9 C 4,4 C 4,7 C 4,7 C 0,5 C 90 % 77 % 0 % 1026,8 hPa 0,0 l/m 4,2 km/h (1 Bft) W 270 0 min 2,7 C 4,7 C 4,0 km/h (1 Bft)
25.01.2016 05:25 4,2 C 18,0 C 4,5 C 4,7 C 4,7 C 0,5 C 90 % 77 % 0 % 1026,8 hPa 0,0 l/m 4,2 km/h (1 Bft) SW 225 0 min 2,7 C 4,7 C 2,4 km/h (1 Bft)
25.01.2016 05:30 4,2 C 18,0 C 4,4 C 4,7 C 4,7 C 0,5 C 90 % 77 % 0 % 1026,4 hPa 0,0 l/m 4,0 km/h (1 Bft) SW 225 0 min 2,7 C 4,7 C 4,2 km/h (1 Bft)
25.01.2016 05:35 4,2 C 18,0 C 4,4 C 5,1 C 5,1 C 0,9 C 90 % 77 % 0 % 1026,4 hPa 0,0 l/m 3,5 km/h (1 Bft) SW 225 0 min 2,7 C 5,1 C 3,1 km/h (1 Bft)
25.01.2016 05:40 4,3 C 18,0 C 4,5 C 5,1 C 5,1 C 0,8 C 90 % 77 % 0 % 1026,4 hPa 0,0 l/m 3,5 km/h (1 Bft) SW 225 0 min 2,8 C 5,1 C 5,1 km/h (1 Bft)
25.01.2016 05:45 4,2 C 18,0 C 4,5 C 4,9 C 4,9 C 0,7 C 90 % 77 % 0 % 1026,4 hPa 0,0 l/m 3,9 km/h (1 Bft) W 270 0 min 2,7 C 4,9 C 4,5 km/h (1 Bft)
25.01.2016 05:50 4,3 C 18,0 C 4,5 C 5,3 C 5,3 C 1,0 C 90 % 77 % 0 % 1026,9 hPa 0,0 l/m 2,3 km/h (1 Bft) S-SW 202 0 min 2,8 C 5,3 C 4,8 km/h (1 Bft)
25.01.2016 05:55 4,3 C 18,0 C 4,6 C 5,3 C 5,3 C 1,0 C 90 % 77 % 0 % 1026,9 hPa 0,0 l/m 1,9 km/h (1 Bft) W-NW 292 0 min 2,8 C 5,3 C 7,2 km/h (2 Bft)
25.01.2016 06:00 4,2 C 18,0 C 4,5 C 5,3 C 5,3 C 1,1 C 90 % 77 % 0 % 1026,9 hPa 0,0 l/m 2,9 km/h (1 Bft) SW 225 0 min 2,7 C 5,3 C 4,0 km/h (1 Bft)
25.01.2016 06:05 4,2 C 18,0 C 4,5 C 5,1 C 5,1 C 0,9 C 90 % 77 % 0 % 1026,9 hPa 0,0 l/m 3,4 km/h (1 Bft) S-SW 202 0 min 2,7 C 5,1 C 6,1 km/h (2 Bft)
25.01.2016 06:10 4,2 C 18,0 C 4,5 C 4,8 C 4,8 C 0,6 C 90 % 76 % 0 % 1026,2 hPa 0,0 l/m 4,0 km/h (1 Bft) W-SW 247 0 min 2,7 C 4,8 C 5,5 km/h (1 Bft)
25.01.2016 06:15 4,3 C 18,0 C 4,5 C 4,7 C 4,7 C 0,4 C 91 % 76 % 0 % 1026,2 hPa 0,0 l/m 4,2 km/h (1 Bft) W-SW 247 0 min 3,0 C 4,7 C 5,3 km/h (1 Bft)
25.01.2016 06:20 4,3 C 18,0 C 4,6 C 4,8 C 4,8 C 0,5 C 91 % 76 % 0 % 1026,2 hPa 0,0 l/m 4,0 km/h (1 Bft) W-SW 247 0 min 3,0 C 4,8 C 3,7 km/h (1 Bft)
25.01.2016 06:25 4,3 C 18,0 C 4,6 C 4,9 C 4,9 C 0,6 C 91 % 76 % 0 % 1026,2 hPa 0,0 l/m 3,9 km/h (1 Bft) SW 225 0 min 3,0 C 4,9 C 6,3 km/h (2 Bft)
25.01.2016 06:30 4,3 C 18,0 C 4,7 C 4,7 C 4,7 C 0,4 C 91 % 76 % 0 % 1026,2 hPa 0,0 l/m 4,2 km/h (1 Bft) W-SW 247 0 min 3,0 C 4,7 C 7,1 km/h (2 Bft)
25.01.2016 06:35 4,3 C 18,0 C 4,7 C 4,7 C 4,7 C 0,4 C 91 % 76 % 0 % 1026,2 hPa 0,0 l/m 4,5 km/h (1 Bft) W-SW 247 0 min 3,0 C 4,7 C 8,0 km/h (2 Bft)
25.01.2016 06:41 4,4 C 18,0 C 4,8 C 4,7 C 4,7 C 0,3 C 91 % 76 % 0 % 1026,2 hPa 0,0 l/m 4,5 km/h (1 Bft) N 0 0 min 3,1 C 4,7 C 5,3 km/h (1 Bft)
25.01.2016 06:50 4,4 C 18,0 C 4,8 C 5,2 C 5,2 C 0,8 C 91 % 76 % 0 % 1026,8 hPa 0,0 l/m 3,7 km/h (1 Bft) W-SW 247 0 min 3,1 C 5,2 C 3,2 km/h (1 Bft)
25.01.2016 06:55 4,5 C 18,0 C 4,7 C 5,4 C 5,4 C 0,9 C 91 % 76 % 0 % 1026,8 hPa 0,0 l/m 3,2 km/h (1 Bft) SW 225 0 min 3,2 C 5,4 C 4,7 km/h (1 Bft)
25.01.2016 07:00 4,4 C 18,0 C 4,7 C 5,1 C 5,1 C 0,7 C 91 % 76 % 0 % 1026,8 hPa 0,7 l/m 3,9 km/h (1 Bft) SW 225 0 min 3,1 C 5,1 C 3,4 km/h (1 Bft)
25.01.2016 07:05 4,4 C 18,0 C 4,8 C 5,2 C 5,2 C 0,8 C 91 % 75 % 0 % 1026,8 hPa 0,0 l/m 3,7 km/h (1 Bft) W-SW 247 0 min 3,1 C 5,2 C 4,5 km/h (1 Bft)
25.01.2016 07:10 4,5 C 18,0 C 4,8 C 5,4 C 5,4 C 0,9 C 91 % 75 % 0 % 1026,2 hPa 0,0 l/m 3,4 km/h (1 Bft) W-SW 247 0 min 3,2 C 5,4 C 2,6 km/h (1 Bft)
25.01.2016 07:15 4,5 C 18,0 C 4,9 C 5,4 C 5,4 C 0,9 C 91 % 75 % 0 % 1026,2 hPa 0,0 l/m 3,4 km/h (1 Bft) SW 225 0 min 3,2 C 5,4 C 3,1 km/h (1 Bft)
25.01.2016 07:20 4,5 C 18,0 C 4,9 C 5,5 C 5,5 C 1,0 C 91 % 75 % 0 % 1026,2 hPa 0,0 l/m 3,1 km/h (1 Bft) S-SW 202 0 min 3,2 C 5,5 C 5,3 km/h (1 Bft)
25.01.2016 07:25 4,5 C 18,0 C 4,8 C 5,4 C 5,4 C 0,9 C 91 % 75 % 0 % 1026,2 hPa 0,0 l/m 3,2 km/h (1 Bft) W-SW 247 0 min 3,2 C 5,4 C 3,9 km/h (1 Bft)
25.01.2016 07:30 4,5 C 18,0 C 4,9 C 5,6 C 5,6 C 1,1 C 91 % 75 % 0 % 1026,2 hPa 0,0 l/m 2,7 km/h (1 Bft) SO 135 0 min 3,2 C 5,6 C 5,1 km/h (1 Bft)
25.01.2016 07:35 4,6 C 18,0 C 4,9 C 5,6 C 5,6 C 1,0 C 91 % 75 % 0 % 1026,2 hPa 0,0 l/m 2,1 km/h (1 Bft) S 180 0 min 3,3 C 5,6 C 2,9 km/h (1 Bft)
25.01.2016 07:40 4,7 C 18,0 C 4,9 C 5,6 C 5,6 C 0,9 C 91 % 75 % 0 % 1026,2 hPa 0,0 l/m 1,8 km/h (1 Bft) O 90 0 min 3,4 C 5,6 C 2,9 km/h (1 Bft)
25.01.2016 07:45 4,7 C 18,0 C 4,9 C 5,6 C 5,6 C 0,9 C 91 % 75 % 0 % 1026,2 hPa 0,7 l/m 1,9 km/h (1 Bft) S 180 0 min 3,4 C 5,6 C 3,4 km/h (1 Bft)
25.01.2016 07:50 4,6 C 18,0 C 4,9 C 5,6 C 5,6 C 1,0 C 91 % 75 % 0 % 1026,2 hPa 0,0 l/m 1,3 km/h (1 Bft) W-NW 292 0 min 3,3 C 5,6 C 0,0 km/h (0 Bft)
25.01.2016 07:55 4,5 C 18,0 C 4,9 C 5,6 C 5,6 C 1,1 C 91 % 75 % 0 % 1026,2 hPa 0,0 l/m 1,1 km/h (1 Bft) O-SO 112 0 min 3,2 C 5,6 C 0,0 km/h (0 Bft)
25.01.2016 08:00 4,5 C 18,0 C 4,9 C 5,5 C 5,5 C 1,0 C 91 % 75 % 0 % 1026,2 hPa 0,0 l/m 1,3 km/h (1 Bft) SW 225 0 min 3,2 C 5,5 C 7,1 km/h (2 Bft)
25.01.2016 08:05 4,7 C 18,0 C 5,1 C 5,6 C 5,6 C 0,9 C 91 % 75 % 0 % 1026,2 hPa 0,0 l/m 1,9 km/h (1 Bft) W-SW 247 0 min 3,4 C 5,6 C 3,2 km/h (1 Bft)
25.01.2016 08:10 4,7 C 18,0 C 5,1 C 5,7 C 5,7 C 1,0 C 91 % 75 % 26 % 1026,2 hPa 0,0 l/m 2,4 km/h (1 Bft) W-SW 247 5 min 3,4 C 5,7 C 2,9 km/h (1 Bft)
25.01.2016 08:15 4,7 C 18,0 C 5,1 C 5,7 C 5,7 C 1,0 C 91 % 75 % 26 % 1026,2 hPa 0,0 l/m 1,9 km/h (1 Bft) S-SW 202 5 min 3,4 C 5,7 C 5,1 km/h (1 Bft)
25.01.2016 08:20 4,8 C 18,0 C 5,1 C 5,8 C 5,8 C 1,0 C 91 % 75 % 26 % 1026,2 hPa 0,0 l/m 2,1 km/h (1 Bft) W-SW 247 5 min 3,5 C 5,8 C 4,2 km/h (1 Bft)
25.01.2016 08:25 4,8 C 18,0 C 5,1 C 5,9 C 5,9 C 1,1 C 91 % 75 % 29 % 1026,2 hPa 0,0 l/m 3,1 km/h (1 Bft) W 270 5 min 3,5 C 5,9 C 4,5 km/h (1 Bft)
25.01.2016 08:30 4,8 C 18,0 C 5,2 C 5,8 C 5,8 C 1,0 C 91 % 75 % 26 % 1026,2 hPa 0,0 l/m 3,5 km/h (1 Bft) S 180 5 min 3,5 C 5,8 C 6,1 km/h (2 Bft)
25.01.2016 08:35 4,9 C 18,0 C 5,2 C 6,0 C 6,0 C 1,1 C 91 % 75 % 29 % 1026,2 hPa 0,0 l/m 3,1 km/h (1 Bft) W-NW 292 5 min 3,6 C 6,0 C 3,7 km/h (1 Bft)
25.01.2016 08:40 5,0 C 18,0 C 5,3 C 6,0 C 6,0 C 1,0 C 91 % 75 % 26 % 1026,2 hPa 0,0 l/m 3,1 km/h (1 Bft) W 270 5 min 3,7 C 6,0 C 5,8 km/h (2 Bft)
25.01.2016 08:45 5,0 C 18,0 C 5,3 C 6,0 C 6,0 C 1,0 C 91 % 75 % 26 % 1026,2 hPa 0,0 l/m 3,1 km/h (1 Bft) W-SW 247 5 min 3,7 C 6,0 C 3,9 km/h (1 Bft)
25.01.2016 08:50 5,1 C 18,0 C 5,4 C 6,0 C 6,0 C 0,9 C 91 % 75 % 24 % 1026,2 hPa 0,0 l/m 3,1 km/h (1 Bft) W-SW 247 0 min 3,8 C 6,0 C 2,6 km/h (1 Bft)
25.01.2016 08:55 5,1 C 18,0 C 5,5 C 6,0 C 6,0 C 0,9 C 91 % 75 % 24 % 1026,2 hPa 0,0 l/m 3,1 km/h (1 Bft) SO 135 0 min 3,8 C 6,0 C 9,7 km/h (2 Bft)
25.01.2016 09:00 5,0 C 18,0 C 5,5 C 5,9 C 5,9 C 0,9 C 91 % 75 % 24 % 1026,2 hPa 0,0 l/m 3,5 km/h (1 Bft) W-SW 247 0 min 3,7 C 5,9 C 4,8 km/h (1 Bft)
25.01.2016 09:05 5,1 C 18,0 C 5,5 C 5,8 C 5,8 C 0,7 C 91 % 74 % 18 % 1026,2 hPa 0,0 l/m 3,9 km/h (1 Bft) SW 225 0 min 3,8 C 5,8 C 3,7 km/h (1 Bft)
25.01.2016 09:10 5,1 C 18,0 C 5,4 C 6,1 C 6,1 C 1,0 C 91 % 74 % 26 % 1027,1 hPa 0,0 l/m 3,1 km/h (1 Bft) W-SW 247 0 min 3,8 C 6,1 C 4,8 km/h (1 Bft)
25.01.2016 09:15 5,1 C 18,0 C 5,5 C 6,1 C 6,1 C 1,0 C 91 % 74 % 26 % 1027,1 hPa 0,0 l/m 2,4 km/h (1 Bft) W-SW 247 0 min 3,8 C 6,1 C 2,1 km/h (1 Bft)
25.01.2016 09:20 5,1 C 18,1 C 5,4 C 6,1 C 6,1 C 1,0 C 91 % 74 % 26 % 1027,1 hPa 0,0 l/m 1,8 km/h (1 Bft) O 90 0 min 3,8 C 6,1 C 1,6 km/h (1 Bft)
25.01.2016 09:25 5,1 C 18,0 C 5,5 C 6,2 C 6,2 C 1,1 C 91 % 74 % 29 % 1027,1 hPa 0,0 l/m 1,4 km/h (1 Bft) W-SW 247 0 min 3,8 C 6,2 C 2,9 km/h (1 Bft)
25.01.2016 09:30 5,2 C 18,0 C 5,6 C 6,2 C 6,2 C 1,0 C 91 % 74 % 26 % 1027,1 hPa 0,0 l/m 2,1 km/h (1 Bft) O-SO 112 0 min 3,9 C 6,2 C 2,1 km/h (1 Bft)
25.01.2016 09:35 5,2 C 18,0 C 5,6 C 6,2 C 6,2 C 1,0 C 91 % 74 % 26 % 1027,1 hPa 0,0 l/m 2,6 km/h (1 Bft) SO 135 0 min 3,9 C 6,2 C 3,9 km/h (1 Bft)
25.01.2016 09:41 5,2 C 18,0 C 5,6 C 6,3 C 6,3 C 1,1 C 91 % 74 % 29 % 1027,1 hPa 0,0 l/m 2,4 km/h (1 Bft) N 0 0 min 3,9 C 6,3 C 0,0 km/h (0 Bft)
25.01.2016 09:50 5,3 C 18,0 C 5,7 C 6,4 C 6,4 C 1,1 C 91 % 74 % 29 % 1027,2 hPa 0,0 l/m 1,4 km/h (1 Bft) S 180 0 min 4,0 C 6,4 C 2,1 km/h (1 Bft)
25.01.2016 09:55 5,3 C 18,0 C 5,7 C 6,5 C 6,5 C 1,2 C 91 % 74 % 32 % 1027,2 hPa 0,0 l/m 1,4 km/h (1 Bft) W-SW 247 0 min 4,0 C 6,5 C 3,7 km/h (1 Bft)
25.01.2016 10:00 5,5 C 18,0 C 5,9 C 6,5 C 6,5 C 1,0 C 91 % 74 % 26 % 1027,2 hPa 0,0 l/m 2,1 km/h (1 Bft) S-SO 157 0 min 4,2 C 6,5 C 5,0 km/h (1 Bft)
25.01.2016 10:05 5,4 C 18,0 C 6,0 C 6,6 C 6,6 C 1,2 C 91 % 74 % 32 % 1027,2 hPa 0,0 l/m 2,6 km/h (1 Bft) O-NO 67 0 min 4,1 C 6,6 C 0,0 km/h (0 Bft)
25.01.2016 10:10 5,6 C 18,0 C 6,0 C 6,8 C 6,8 C 1,2 C 91 % 74 % 32 % 1026,6 hPa 0,0 l/m 1,9 km/h (1 Bft) W-NW 292 0 min 4,2 C 6,8 C 4,5 km/h (1 Bft)
25.01.2016 10:15 5,6 C 18,0 C 6,1 C 6,8 C 6,8 C 1,2 C 91 % 74 % 32 % 1026,6 hPa 0,0 l/m 1,6 km/h (1 Bft) S-SO 157 0 min 4,2 C 6,8 C 0,0 km/h (0 Bft)
25.01.2016 10:20 5,7 C 18,0 C 6,1 C 6,9 C 6,9 C 1,2 C 91 % 74 % 32 % 1026,6 hPa 0,0 l/m 1,9 km/h (1 Bft) SW 225 0 min 4,3 C 6,9 C 0,0 km/h (0 Bft)
25.01.2016 10:25 5,7 C 18,0 C 6,3 C 7,0 C 7,0 C 1,3 C 91 % 74 % 34 % 1026,6 hPa 0,0 l/m 1,6 km/h (1 Bft) S-SW 202 0 min 4,3 C 7,0 C 0,0 km/h (0 Bft)
25.01.2016 10:30 5,9 C 18,0 C 6,4 C 7,1 C 7,1 C 1,2 C 92 % 74 % 32 % 1026,6 hPa 0,0 l/m 1,4 km/h (1 Bft) W-SW 247 0 min 4,7 C 7,1 C 2,7 km/h (1 Bft)
25.01.2016 10:35 5,8 C 18,0 C 6,4 C 7,2 C 7,2 C 1,4 C 91 % 74 % 37 % 1026,6 hPa 0,0 l/m 1,6 km/h (1 Bft) W-SW 247 0 min 4,4 C 7,2 C 3,1 km/h (1 Bft)
25.01.2016 10:40 6,0 C 18,1 C 6,5 C 7,3 C 7,3 C 1,3 C 92 % 74 % 34 % 1026,6 hPa 0,0 l/m 1,6 km/h (1 Bft) SW 225 0 min 4,8 C 7,3 C 0,0 km/h (0 Bft)
25.01.2016 10:45 6,0 C 18,1 C 6,4 C 7,4 C 7,4 C 1,4 C 92 % 74 % 37 % 1026,6 hPa 0,0 l/m 1,4 km/h (1 Bft) W-SW 247 0 min 4,8 C 7,4 C 2,7 km/h (1 Bft)
25.01.2016 10:50 6,0 C 18,1 C 6,5 C 7,4 C 7,4 C 1,4 C 92 % 74 % 37 % 1026,8 hPa 0,0 l/m 1,8 km/h (1 Bft) SW 225 0 min 4,8 C 7,4 C 2,9 km/h (1 Bft)
25.01.2016 10:55 6,0 C 18,1 C 6,5 C 7,4 C 7,4 C 1,4 C 92 % 74 % 37 % 1026,8 hPa 0,0 l/m 2,4 km/h (1 Bft) W-SW 247 0 min 4,8 C 7,4 C 2,7 km/h (1 Bft)
25.01.2016 11:00 6,1 C 18,1 C 6,5 C 7,4 C 7,4 C 1,3 C 92 % 74 % 34 % 1026,8 hPa 0,0 l/m 2,4 km/h (1 Bft) O-SO 112 0 min 4,9 C 7,4 C 2,1 km/h (1 Bft)
25.01.2016 11:05 6,2 C 18,1 C 6,7 C 7,4 C 7,4 C 1,2 C 92 % 74 % 32 % 1026,8 hPa 0,0 l/m 2,3 km/h (1 Bft) SW 225 0 min 5,0 C 7,4 C 2,1 km/h (1 Bft)
25.01.2016 11:10 6,3 C 18,1 C 6,6 C 7,3 C 7,3 C 1,0 C 92 % 74 % 26 % 1027,5 hPa 0,0 l/m 2,4 km/h (1 Bft) SW 225 0 min 5,1 C 7,3 C 2,9 km/h (1 Bft)
25.01.2016 11:15 6,3 C 18,1 C 6,7 C 7,3 C 7,3 C 1,0 C 92 % 73 % 26 % 1027,5 hPa 0,0 l/m 2,4 km/h (1 Bft) W-SW 247 0 min 5,1 C 7,3 C 1,6 km/h (1 Bft)
25.01.2016 11:20 6,3 C 18,1 C 6,7 C 7,4 C 7,4 C 1,1 C 92 % 73 % 29 % 1027,5 hPa 0,0 l/m 1,8 km/h (1 Bft) N 360 0 min 5,1 C 7,4 C 3,9 km/h (1 Bft)
25.01.2016 11:25 6,2 C 18,1 C 6,7 C 7,4 C 7,4 C 1,2 C 92 % 73 % 32 % 1027,5 hPa 0,0 l/m 1,3 km/h (1 Bft) W-SW 247 0 min 5,0 C 7,4 C 3,1 km/h (1 Bft)
25.01.2016 11:30 6,3 C 18,1 C 6,7 C 7,5 C 7,5 C 1,2 C 92 % 73 % 32 % 1027,5 hPa 0,0 l/m 1,8 km/h (1 Bft) W-SW 247 0 min 5,1 C 7,5 C 1,6 km/h (1 Bft)
25.01.2016 11:35 6,3 C 18,1 C 6,8 C 7,5 C 7,5 C 1,2 C 92 % 73 % 32 % 1027,5 hPa 0,0 l/m 1,8 km/h (1 Bft) W-SW 247 0 min 5,1 C 7,5 C 3,1 km/h (1 Bft)
25.01.2016 11:40 6,4 C 18,1 C 6,7 C 7,5 C 7,5 C 1,1 C 92 % 73 % 29 % 1027,5 hPa 0,0 l/m 1,9 km/h (1 Bft) W-SW 247 0 min 5,2 C 7,5 C 1,8 km/h (1 Bft)
25.01.2016 11:45 6,4 C 18,1 C 6,7 C 7,6 C 7,6 C 1,2 C 92 % 73 % 32 % 1027,5 hPa 0,0 l/m 1,9 km/h (1 Bft) W-SW 247 0 min 5,2 C 7,6 C 0,0 km/h (0 Bft)
25.01.2016 11:50 6,4 C 18,1 C 6,8 C 7,7 C 7,7 C 1,3 C 92 % 73 % 34 % 1027,5 hPa 0,0 l/m 1,8 km/h (1 Bft) SW 225 0 min 5,2 C 7,7 C 2,4 km/h (1 Bft)
25.01.2016 11:55 6,5 C 18,1 C 6,9 C 7,8 C 7,8 C 1,3 C 92 % 73 % 34 % 1027,5 hPa 0,0 l/m 2,4 km/h (1 Bft) SW 225 0 min 5,3 C 7,8 C 4,0 km/h (1 Bft)
25.01.2016 12:00 6,5 C 18,1 C 7,1 C 7,9 C 7,9 C 1,4 C 92 % 73 % 37 % 1027,5 hPa 0,0 l/m 3,4 km/h (1 Bft) W 270 0 min 5,3 C 7,9 C 4,0 km/h (1 Bft)
25.01.2016 12:05 6,5 C 18,1 C 7,1 C 7,9 C 7,9 C 1,4 C 92 % 73 % 37 % 1027,5 hPa 0,0 l/m 3,1 km/h (1 Bft) SW 225 0 min 5,3 C 7,9 C 3,9 km/h (1 Bft)
25.01.2016 12:10 6,7 C 18,1 C 7,1 C 8,0 C 8,0 C 1,3 C 92 % 73 % 34 % 1027,5 hPa 0,0 l/m 2,7 km/h (1 Bft) SW 225 0 min 5,5 C 8,0 C 4,7 km/h (1 Bft)
25.01.2016 12:15 6,7 C 18,0 C 7,2 C 8,0 C 8,0 C 1,3 C 92 % 73 % 34 % 1027,5 hPa 0,0 l/m 2,6 km/h (1 Bft) S-SW 202 0 min 5,5 C 8,0 C 2,7 km/h (1 Bft)
25.01.2016 12:20 6,8 C 18,0 C 7,2 C 8,1 C 8,1 C 1,3 C 92 % 73 % 34 % 1027,5 hPa 0,0 l/m 2,9 km/h (1 Bft) SW 225 0 min 5,6 C 8,1 C 3,1 km/h (1 Bft)
25.01.2016 12:25 6,9 C 18,0 C 7,2 C 8,1 C 8,1 C 1,2 C 92 % 73 % 32 % 1027,5 hPa 0,0 l/m 2,7 km/h (1 Bft) SW 225 0 min 5,7 C 8,1 C 3,2 km/h (1 Bft)
25.01.2016 12:30 6,8 C 18,0 C 7,3 C 8,2 C 8,2 C 1,4 C 92 % 73 % 37 % 1027,5 hPa 0,0 l/m 2,6 km/h (1 Bft) W-SW 247 0 min 5,6 C 8,2 C 6,0 km/h (2 Bft)
25.01.2016 12:35 6,9 C 18,0 C 7,5 C 8,2 C 8,2 C 1,3 C 92 % 73 % 34 % 1027,5 hPa 0,0 l/m 3,2 km/h (1 Bft) SW 225 0 min 5,7 C 8,2 C 6,9 km/h (2 Bft)
25.01.2016 12:41 7,1 C 18,0 C 7,5 C 8,5 C 8,5 C 1,4 C 92 % 73 % 37 % 1027,5 hPa 0,0 l/m 3,2 km/h (1 Bft) N 0 0 min 5,9 C 8,5 C 2,1 km/h (1 Bft)
25.01.2016 12:50 7,1 C 18,0 C 7,6 C 8,7 C 8,7 C 1,6 C 92 % 73 % 42 % 1026,5 hPa 0,0 l/m 3,9 km/h (1 Bft) W 270 0 min 5,9 C 8,7 C 7,7 km/h (2 Bft)
25.01.2016 12:55 7,2 C 18,0 C 7,7 C 8,5 C 8,5 C 1,3 C 92 % 73 % 34 % 1026,5 hPa 0,0 l/m 4,5 km/h (1 Bft) W-SW 247 0 min 6,0 C 8,5 C 2,7 km/h (1 Bft)
25.01.2016 13:00 7,3 C 18,0 C 7,8 C 8,7 C 8,7 C 1,4 C 92 % 73 % 37 % 1026,5 hPa 0,0 l/m 4,8 km/h (1 Bft) SW 225 0 min 6,1 C 8,3 C 4,7 km/h (1 Bft)
25.01.2016 13:05 7,4 C 18,0 C 7,9 C 8,6 C 8,6 C 1,2 C 92 % 73 % 32 % 1026,5 hPa 0,0 l/m 5,0 km/h (1 Bft) W-SW 247 0 min 6,2 C 8,2 C 7,6 km/h (2 Bft)
25.01.2016 13:10 7,5 C 18,0 C 7,8 C 8,9 C 8,9 C 1,4 C 92 % 73 % 37 % 1026,6 hPa 0,0 l/m 4,8 km/h (1 Bft) S-SO 157 0 min 6,3 C 8,6 C 5,8 km/h (2 Bft)
25.01.2016 13:15 7,5 C 18,0 C 8,0 C 8,9 C 8,9 C 1,4 C 92 % 73 % 37 % 1026,6 hPa 0,0 l/m 5,0 km/h (1 Bft) W-SW 247 0 min 6,3 C 8,5 C 4,2 km/h (1 Bft)
25.01.2016 13:20 7,6 C 18,0 C 8,0 C 8,8 C 8,8 C 1,2 C 92 % 73 % 32 % 1026,6 hPa 0,0 l/m 5,3 km/h (1 Bft) W-SW 247 0 min 6,4 C 8,3 C 5,3 km/h (1 Bft)
25.01.2016 13:25 7,6 C 18,0 C 8,1 C 8,8 C 8,8 C 1,2 C 91 % 73 % 32 % 1026,6 hPa 0,0 l/m 5,6 km/h (1 Bft) SW 225 0 min 6,2 C 8,2 C 5,3 km/h (1 Bft)
25.01.2016 13:30 7,6 C 18,0 C 8,1 C 9,1 C 9,1 C 1,5 C 91 % 72 % 39 % 1026,5 hPa 0,0 l/m 5,1 km/h (1 Bft) W-SW 247 0 min 6,2 C 8,7 C 6,6 km/h (2 Bft)
25.01.2016 13:35 7,6 C 18,0 C 8,1 C 9,2 C 9,2 C 1,6 C 91 % 72 % 42 % 1026,5 hPa 0,0 l/m 5,0 km/h (1 Bft) SW 225 0 min 6,2 C 8,8 C 4,8 km/h (1 Bft)
25.01.2016 13:40 7,6 C 18,0 C 8,1 C 8,8 C 8,8 C 1,2 C 91 % 72 % 32 % 1026,5 hPa 0,0 l/m 5,3 km/h (1 Bft) W-NW 292 0 min 6,2 C 8,3 C 7,6 km/h (2 Bft)
25.01.2016 13:45 7,6 C 18,0 C 8,1 C 8,8 C 8,8 C 1,2 C 91 % 72 % 32 % 1026,5 hPa 0,0 l/m 5,5 km/h (1 Bft) SW 225 0 min 6,2 C 8,2 C 8,2 km/h (2 Bft)
25.01.2016 13:50 7,7 C 18,0 C 8,1 C 8,9 C 8,9 C 1,2 C 91 % 72 % 32 % 1025,9 hPa 0,0 l/m 5,1 km/h (1 Bft) SW 225 0 min 6,3 C 8,5 C 5,0 km/h (1 Bft)
25.01.2016 13:55 7,6 C 18,0 C 8,1 C 9,1 C 9,1 C 1,5 C 91 % 72 % 39 % 1025,9 hPa 0,0 l/m 4,5 km/h (1 Bft) SW 225 0 min 6,2 C 9,1 C 5,8 km/h (2 Bft)
25.01.2016 14:00 7,6 C 18,0 C 8,1 C 9,3 C 9,3 C 1,7 C 91 % 72 % 45 % 1025,9 hPa 0,0 l/m 4,0 km/h (1 Bft) S 180 0 min 6,2 C 9,3 C 5,1 km/h (1 Bft)
25.01.2016 14:05 7,7 C 18,0 C 8,1 C 9,3 C 9,3 C 1,6 C 91 % 72 % 42 % 1025,9 hPa 0,0 l/m 4,2 km/h (1 Bft) S-SW 202 0 min 6,3 C 9,3 C 3,5 km/h (1 Bft)
25.01.2016 14:10 7,7 C 18,0 C 8,2 C 9,6 C 9,6 C 1,9 C 91 % 72 % 50 % 1025,9 hPa 0,0 l/m 3,5 km/h (1 Bft) S-SO 157 0 min 6,3 C 9,6 C 4,7 km/h (1 Bft)
25.01.2016 14:15 7,9 C 18,0 C 8,5 C 9,8 C 9,8 C 1,9 C 91 % 73 % 50 % 1025,9 hPa 0,0 l/m 3,2 km/h (1 Bft) W-SW 247 0 min 6,5 C 9,8 C 3,2 km/h (1 Bft)
25.01.2016 14:20 7,9 C 18,0 C 8,5 C 10,0 C 10,0 C 2,1 C 91 % 72 % 55 % 1025,9 hPa 0,0 l/m 3,2 km/h (1 Bft) W-SW 247 0 min 6,5 C 10,0 C 6,0 km/h (2 Bft)
25.01.2016 14:25 8,0 C 18,0 C 8,4 C 10,0 C 10,0 C 2,0 C 91 % 72 % 53 % 1025,9 hPa 0,0 l/m 3,7 km/h (1 Bft) S 180 0 min 6,6 C 10,0 C 6,1 km/h (2 Bft)
25.01.2016 14:30 8,0 C 18,0 C 8,4 C 9,9 C 9,9 C 1,9 C 90 % 72 % 50 % 1025,9 hPa 0,0 l/m 3,9 km/h (1 Bft) W-SW 247 0 min 6,5 C 9,9 C 5,1 km/h (1 Bft)
25.01.2016 14:35 8,0 C 18,0 C 8,4 C 9,9 C 9,9 C 1,9 C 90 % 72 % 50 % 1025,9 hPa 0,0 l/m 3,7 km/h (1 Bft) NW 315 0 min 6,5 C 9,9 C 8,2 km/h (2 Bft)
25.01.2016 14:40 8,1 C 18,0 C 8,5 C 9,9 C 9,9 C 1,8 C 90 % 72 % 47 % 1025,9 hPa 0,0 l/m 3,9 km/h (1 Bft) W-SW 247 0 min 6,6 C 9,9 C 6,1 km/h (2 Bft)
25.01.2016 14:45 8,0 C 18,0 C 8,5 C 9,8 C 9,8 C 1,8 C 90 % 72 % 47 % 1025,9 hPa 0,0 l/m 3,9 km/h (1 Bft) W-SW 247 0 min 6,5 C 9,8 C 3,4 km/h (1 Bft)
25.01.2016 14:50 8,1 C 18,0 C 8,5 C 9,8 C 9,8 C 1,7 C 90 % 72 % 45 % 1025,9 hPa 0,0 l/m 3,4 km/h (1 Bft) W-SW 247 0 min 6,6 C 9,8 C 4,0 km/h (1 Bft)
25.01.2016 14:55 8,0 C 18,0 C 8,4 C 9,8 C 9,8 C 1,8 C 90 % 72 % 47 % 1025,9 hPa 0,0 l/m 3,2 km/h (1 Bft) SW 225 0 min 6,5 C 9,8 C 5,0 km/h (1 Bft)
25.01.2016 15:00 8,0 C 18,0 C 8,4 C 9,7 C 9,7 C 1,7 C 90 % 72 % 45 % 1025,9 hPa 0,0 l/m 3,7 km/h (1 Bft) N-NW 337 0 min 6,5 C 9,7 C 4,5 km/h (1 Bft)
25.01.2016 15:05 8,1 C 18,0 C 8,4 C 9,7 C 9,7 C 1,6 C 89 % 72 % 42 % 1025,9 hPa 0,0 l/m 3,5 km/h (1 Bft) W-SW 247 0 min 6,4 C 9,7 C 3,5 km/h (1 Bft)
25.01.2016 15:10 8,1 C 18,0 C 8,5 C 9,8 C 9,8 C 1,7 C 89 % 72 % 45 % 1025,9 hPa 0,0 l/m 4,0 km/h (1 Bft) W-SW 247 0 min 6,4 C 9,8 C 4,0 km/h (1 Bft)
25.01.2016 15:15 8,1 C 17,9 C 8,4 C 9,7 C 9,7 C 1,6 C 89 % 72 % 42 % 1025,9 hPa 0,0 l/m 4,2 km/h (1 Bft) W-SW 247 0 min 6,4 C 9,7 C 6,8 km/h (2 Bft)
25.01.2016 15:20 8,0 C 17,9 C 8,4 C 9,6 C 9,6 C 1,6 C 89 % 72 % 42 % 1025,9 hPa 0,0 l/m 3,5 km/h (1 Bft) SW 225 0 min 6,3 C 9,6 C 3,9 km/h (1 Bft)
25.01.2016 15:25 8,0 C 17,9 C 8,5 C 9,6 C 9,6 C 1,6 C 89 % 72 % 42 % 1025,9 hPa 0,0 l/m 3,7 km/h (1 Bft) SW 225 0 min 6,3 C 9,6 C 6,4 km/h (2 Bft)
25.01.2016 15:30 8,0 C 17,9 C 8,4 C 9,7 C 9,7 C 1,7 C 89 % 72 % 45 % 1025,9 hPa 0,0 l/m 3,9 km/h (1 Bft) W-SW 247 5 min 6,3 C 9,7 C 2,7 km/h (1 Bft)
25.01.2016 15:35 8,1 C 17,9 C 8,4 C 9,7 C 9,7 C 1,6 C 89 % 72 % 42 % 1025,9 hPa 0,0 l/m 3,7 km/h (1 Bft) W-SW 247 5 min 6,4 C 9,7 C 5,5 km/h (1 Bft)
25.01.2016 15:41 8,0 C 18,0 C 8,4 C 9,7 C 9,7 C 1,7 C 89 % 72 % 45 % 1025,9 hPa 0,0 l/m 2,6 km/h (1 Bft) N 0 6 min 6,3 C 9,7 C 2,3 km/h (1 Bft)
25.01.2016 15:50 7,9 C 17,9 C 8,4 C 9,6 C 9,6 C 1,7 C 89 % 72 % 45 % 1025,6 hPa 0,0 l/m 3,5 km/h (1 Bft) W-SW 247 9 min 6,2 C 9,6 C 6,8 km/h (2 Bft)
25.01.2016 15:55 7,9 C 17,9 C 8,3 C 9,5 C 9,5 C 1,6 C 89 % 72 % 42 % 1025,6 hPa 0,0 l/m 3,5 km/h (1 Bft) W-SW 247 5 min 6,2 C 9,5 C 2,1 km/h (1 Bft)
25.01.2016 16:00 7,9 C 18,0 C 8,3 C 9,5 C 9,5 C 1,6 C 89 % 72 % 42 % 1025,6 hPa 0,0 l/m 1,9 km/h (1 Bft) W-NW 292 5 min 6,2 C 9,5 C 0,0 km/h (0 Bft)
25.01.2016 16:05 7,9 C 18,0 C 8,1 C 9,5 C 9,5 C 1,6 C 89 % 72 % 42 % 1025,6 hPa 0,0 l/m 0,6 km/h (0 Bft) SW 225 5 min 6,2 C 9,5 C 0,0 km/h (0 Bft)
25.01.2016 16:10 7,9 C 17,9 C 8,1 C 9,4 C 9,4 C 1,5 C 89 % 72 % 39 % 1025,6 hPa 0,0 l/m 1,0 km/h (0 Bft) W-SW 247 5 min 6,2 C 9,4 C 3,9 km/h (1 Bft)
25.01.2016 16:15 7,9 C 18,0 C 8,1 C 9,3 C 9,3 C 1,4 C 89 % 72 % 37 % 1025,6 hPa 0,0 l/m 1,8 km/h (1 Bft) W-SW 247 5 min 6,2 C 9,3 C 4,7 km/h (1 Bft)
25.01.2016 16:20 7,8 C 17,9 C 8,1 C 9,2 C 9,2 C 1,4 C 89 % 72 % 37 % 1025,6 hPa 0,0 l/m 1,9 km/h (1 Bft) W-NW 292 5 min 6,1 C 9,2 C 3,1 km/h (1 Bft)
25.01.2016 16:25 7,9 C 17,9 C 8,1 C 9,2 C 9,2 C 1,3 C 89 % 72 % 34 % 1025,6 hPa 0,0 l/m 1,6 km/h (1 Bft) O-NO 67 5 min 6,2 C 9,2 C 0,0 km/h (0 Bft)
25.01.2016 16:30 7,8 C 17,9 C 8,0 C 9,2 C 9,2 C 1,4 C 89 % 72 % 37 % 1025,6 hPa 0,0 l/m 1,0 km/h (0 Bft) W-SW 247 5 min 6,1 C 9,2 C 1,9 km/h (1 Bft)
25.01.2016 16:35 7,7 C 17,9 C 8,1 C 9,2 C 9,2 C 1,5 C 89 % 72 % 0 % 1025,6 hPa 0,0 l/m 0,5 km/h (0 Bft) N-NO 22 0 min 6,0 C 9,2 C 0,0 km/h (0 Bft)
25.01.2016 16:40 7,7 C 17,9 C 8,1 C 9,2 C 9,2 C 1,5 C 89 % 72 % 0 % 1025,6 hPa 0,0 l/m 1,1 km/h (1 Bft) S-SW 202 0 min 6,0 C 9,2 C 1,6 km/h (1 Bft)
25.01.2016 16:45 7,7 C 17,9 C 8,0 C 9,1 C 9,1 C 1,4 C 88 % 72 % 0 % 1025,6 hPa 0,0 l/m 1,1 km/h (1 Bft) O-NO 67 0 min 5,8 C 9,1 C 0,0 km/h (0 Bft)
25.01.2016 16:50 7,6 C 17,9 C 8,0 C 9,1 C 9,1 C 1,5 C 88 % 72 % 0 % 1025,9 hPa 0,0 l/m 0,8 km/h (0 Bft) W-SW 247 0 min 5,7 C 9,1 C 0,0 km/h (0 Bft)
25.01.2016 16:55 7,6 C 17,9 C 7,9 C 9,0 C 9,0 C 1,4 C 88 % 72 % 0 % 1025,9 hPa 0,0 l/m 1,3 km/h (1 Bft) W 270 0 min 5,7 C 9,0 C 2,6 km/h (1 Bft)
25.01.2016 17:00 7,7 C 17,9 C 7,9 C 9,0 C 9,0 C 1,3 C 88 % 72 % 0 % 1025,9 hPa 0,0 l/m 1,1 km/h (1 Bft) NO 45 0 min 5,8 C 9,0 C 0,0 km/h (0 Bft)
25.01.2016 17:05 7,6 C 17,9 C 7,9 C 9,0 C 9,0 C 1,4 C 88 % 72 % 0 % 1025,9 hPa 0,0 l/m 0,6 km/h (0 Bft) S 180 0 min 5,7 C 9,0 C 0,0 km/h (0 Bft)
25.01.2016 17:10 7,5 C 17,9 C 7,7 C 8,9 C 8,9 C 1,4 C 88 % 72 % 0 % 1025,6 hPa 0,0 l/m 0,0 km/h (0 Bft) O-SO 112 0 min 5,6 C 8,9 C 0,0 km/h (0 Bft)
25.01.2016 17:15 7,5 C 17,9 C 7,7 C 8,9 C 8,9 C 1,4 C 88 % 72 % 0 % 1025,6 hPa 0,0 l/m 0,3 km/h (0 Bft) W-SW 247 0 min 5,6 C 8,9 C 2,7 km/h (1 Bft)
25.01.2016 17:20 7,4 C 17,9 C 7,7 C 8,9 C 8,9 C 1,5 C 88 % 72 % 0 % 1025,6 hPa 0,0 l/m 0,6 km/h (0 Bft) S 180 0 min 5,5 C 8,9 C 1,9 km/h (1 Bft)
25.01.2016 17:25 7,5 C 17,9 C 7,7 C 8,8 C 8,8 C 1,3 C 88 % 72 % 0 % 1025,6 hPa 0,0 l/m 0,6 km/h (0 Bft) SO 135 0 min 5,6 C 8,8 C 0,0 km/h (0 Bft)
25.01.2016 17:30 7,5 C 17,9 C 7,6 C 8,8 C 8,8 C 1,3 C 88 % 72 % 0 % 1025,6 hPa 0,0 l/m 1,1 km/h (1 Bft) W-SW 247 0 min 5,6 C 8,8 C 2,9 km/h (1 Bft)
25.01.2016 17:35 7,5 C 17,9 C 7,6 C 8,8 C 8,8 C 1,3 C 88 % 72 % 0 % 1025,6 hPa 0,0 l/m 1,0 km/h (0 Bft) S 180 0 min 5,6 C 8,8 C 0,0 km/h (0 Bft)
25.01.2016 17:40 7,4 C 17,9 C 7,7 C 8,8 C 8,8 C 1,4 C 88 % 72 % 0 % 1025,6 hPa 0,0 l/m 0,3 km/h (0 Bft) N 360 0 min 5,5 C 8,8 C 0,0 km/h (0 Bft)
25.01.2016 17:45 7,3 C 17,9 C 7,7 C 8,8 C 8,8 C 1,5 C 88 % 72 % 0 % 1025,6 hPa 0,0 l/m 0,8 km/h (0 Bft) W-NW 292 0 min 5,4 C 8,8 C 0,0 km/h (0 Bft)
25.01.2016 17:50 7,3 C 17,9 C 7,6 C 8,8 C 8,8 C 1,5 C 88 % 72 % 0 % 1025,8 hPa 0,0 l/m 0,8 km/h (0 Bft) W-SW 247 0 min 5,4 C 8,8 C 1,6 km/h (1 Bft)
25.01.2016 17:55 7,3 C 17,9 C 7,6 C 8,7 C 8,7 C 1,4 C 88 % 72 % 0 % 1025,8 hPa 0,0 l/m 0,5 km/h (0 Bft) N-NW 337 0 min 5,4 C 8,7 C 0,0 km/h (0 Bft)
25.01.2016 18:00 7,2 C 17,9 C 7,6 C 8,8 C 8,8 C 1,6 C 88 % 72 % 0 % 1025,8 hPa 0,0 l/m 0,5 km/h (0 Bft) W 270 0 min 5,3 C 8,8 C 0,0 km/h (0 Bft)
25.01.2016 18:05 7,2 C 17,9 C 7,6 C 8,7 C 8,7 C 1,5 C 88 % 72 % 0 % 1025,8 hPa 0,0 l/m 0,5 km/h (0 Bft) N-NO 22 0 min 5,3 C 8,7 C 0,0 km/h (0 Bft)
25.01.2016 18:10 7,2 C 17,9 C 7,6 C 8,7 C 8,7 C 1,5 C 88 % 72 % 0 % 1025,8 hPa 0,0 l/m 1,1 km/h (1 Bft) S-SO 157 0 min 5,3 C 8,7 C 1,6 km/h (1 Bft)
25.01.2016 18:15 7,3 C 17,9 C 7,6 C 8,7 C 8,7 C 1,4 C 88 % 72 % 0 % 1025,8 hPa 0,0 l/m 1,4 km/h (1 Bft) N-NW 337 0 min 5,4 C 8,7 C 3,2 km/h (1 Bft)
25.01.2016 18:20 7,3 C 17,9 C 7,7 C 8,7 C 8,7 C 1,4 C 88 % 72 % 0 % 1025,8 hPa 0,0 l/m 1,3 km/h (1 Bft) W-NW 292 0 min 5,4 C 8,7 C 0,0 km/h (0 Bft)
25.01.2016 18:25 7,3 C 17,9 C 7,7 C 8,7 C 8,7 C 1,4 C 88 % 72 % 0 % 1025,8 hPa 0,0 l/m 1,1 km/h (1 Bft) SO 135 0 min 5,4 C 8,7 C 2,3 km/h (1 Bft)
25.01.2016 18:30 7,2 C 17,9 C 7,7 C 8,7 C 8,7 C 1,5 C 88 % 72 % 0 % 1025,8 hPa 0,0 l/m 1,6 km/h (1 Bft) S-SO 157 0 min 5,3 C 8,7 C 7,2 km/h (2 Bft)
25.01.2016 18:35 7,3 C 17,9 C 7,9 C 8,8 C 8,8 C 1,5 C 88 % 72 % 0 % 1025,8 hPa 0,0 l/m 2,1 km/h (1 Bft) O 90 0 min 5,4 C 8,8 C 1,6 km/h (1 Bft)
25.01.2016 18:41 7,3 C 17,9 C 7,9 C 8,8 C 8,8 C 1,5 C 88 % 72 % 0 % 1025,8 hPa 0,0 l/m 2,3 km/h (1 Bft) N 0 0 min 5,4 C 8,8 C 3,1 km/h (1 Bft)
25.01.2016 18:50 7,5 C 17,8 C 8,0 C 8,9 C 8,9 C 1,4 C 88 % 72 % 0 % 1025,9 hPa 0,0 l/m 3,5 km/h (1 Bft) S 180 0 min 5,6 C 8,9 C 8,7 km/h (2 Bft)
25.01.2016 18:55 7,4 C 17,8 C 8,0 C 8,9 C 8,9 C 1,5 C 88 % 72 % 0 % 1025,9 hPa 0,0 l/m 4,2 km/h (1 Bft) S-SO 157 0 min 5,5 C 8,9 C 5,8 km/h (2 Bft)
25.01.2016 19:00 7,5 C 17,8 C 8,1 C 8,3 C 8,3 C 0,8 C 88 % 72 % 0 % 1025,9 hPa 0,0 l/m 6,0 km/h (2 Bft) W-SW 247 0 min 5,6 C 7,5 C 12,2 km/h (2 Bft)
25.01.2016 19:05 7,5 C 17,8 C 8,1 C 8,4 C 8,4 C 0,9 C 87 % 72 % 0 % 1025,9 hPa 0,0 l/m 5,8 km/h (2 Bft) SO 135 0 min 5,5 C 7,7 C 4,0 km/h (1 Bft)
25.01.2016 19:10 7,5 C 17,8 C 8,0 C 8,6 C 8,6 C 1,1 C 87 % 72 % 0 % 1025,9 hPa 0,0 l/m 4,7 km/h (1 Bft) S 180 0 min 5,5 C 8,3 C 6,8 km/h (2 Bft)
25.01.2016 19:15 7,5 C 17,8 C 8,1 C 8,8 C 8,8 C 1,3 C 87 % 72 % 0 % 1025,9 hPa 0,0 l/m 3,1 km/h (1 Bft) W 270 0 min 5,5 C 8,8 C 4,3 km/h (1 Bft)
25.01.2016 19:20 7,3 C 17,8 C 8,1 C 8,7 C 8,7 C 1,4 C 87 % 72 % 0 % 1025,9 hPa 0,0 l/m 2,6 km/h (1 Bft) S-SW 202 0 min 5,3 C 8,7 C 3,2 km/h (1 Bft)
25.01.2016 19:25 7,2 C 17,8 C 7,9 C 8,7 C 8,7 C 1,5 C 87 % 72 % 0 % 1025,9 hPa 0,0 l/m 3,7 km/h (1 Bft) W-SW 247 0 min 5,2 C 8,7 C 10,6 km/h (2 Bft)
25.01.2016 19:30 7,2 C 17,8 C 7,8 C 8,3 C 8,3 C 1,1 C 86 % 72 % 0 % 1025,5 hPa 0,0 l/m 4,2 km/h (1 Bft) W-SW 247 0 min 5,0 C 8,3 C 14,8 km/h (3 Bft)
25.01.2016 19:35 7,1 C 17,8 C 7,7 C 8,4 C 8,4 C 1,3 C 86 % 72 % 0 % 1025,5 hPa 0,0 l/m 3,7 km/h (1 Bft) O-SO 112 0 min 4,9 C 8,4 C 4,2 km/h (1 Bft)
25.01.2016 19:40 7,1 C 17,8 C 7,6 C 8,2 C 8,2 C 1,1 C 86 % 72 % 0 % 1025,5 hPa 0,0 l/m 2,6 km/h (1 Bft) NO 45 0 min 4,9 C 8,2 C 2,4 km/h (1 Bft)
25.01.2016 19:45 7,1 C 17,8 C 7,5 C 8,0 C 8,0 C 0,9 C 86 % 72 % 0 % 1025,5 hPa 0,0 l/m 2,4 km/h (1 Bft) N-NO 22 0 min 4,9 C 8,0 C 1,8 km/h (1 Bft)
25.01.2016 19:50 6,8 C 17,9 C 7,3 C 7,7 C 7,7 C 0,9 C 86 % 73 % 0 % 1025,3 hPa 0,0 l/m 3,7 km/h (1 Bft) S 180 0 min 4,6 C 7,7 C 5,3 km/h (1 Bft)
25.01.2016 19:55 6,8 C 17,9 C 7,2 C 7,1 C 7,1 C 0,3 C 86 % 73 % 0 % 1025,3 hPa 0,0 l/m 4,5 km/h (1 Bft) S-SO 157 0 min 4,6 C 7,1 C 5,3 km/h (1 Bft)
25.01.2016 20:00 6,7 C 17,9 C 7,0 C 6,7 C 6,7 C 0,0 C 86 % 73 % 0 % 1025,3 hPa 0,0 l/m 5,0 km/h (1 Bft) SO 135 0 min 4,5 C 6,0 C 8,7 km/h (2 Bft)
25.01.2016 20:05 6,6 C 17,9 C 7,0 C 6,8 C 6,8 C 0,2 C 86 % 73 % 0 % 1025,3 hPa 0,0 l/m 4,5 km/h (1 Bft) S-SO 157 0 min 4,4 C 6,8 C 1,8 km/h (1 Bft)
25.01.2016 20:10 6,5 C 17,9 C 6,8 C 6,7 C 6,7 C 0,2 C 86 % 73 % 0 % 1025,4 hPa 0,0 l/m 4,7 km/h (1 Bft) N-NO 22 0 min 4,3 C 6,1 C 3,5 km/h (1 Bft)
25.01.2016 20:15 6,5 C 18,0 C 6,8 C 6,7 C 6,7 C 0,2 C 86 % 73 % 0 % 1025,4 hPa 0,0 l/m 4,3 km/h (1 Bft) S 180 0 min 4,3 C 6,7 C 5,0 km/h (1 Bft)
25.01.2016 20:20 6,5 C 18,0 C 6,7 C 6,9 C 6,9 C 0,4 C 87 % 73 % 0 % 1025,4 hPa 0,0 l/m 3,4 km/h (1 Bft) S 180 0 min 4,5 C 6,9 C 7,2 km/h (2 Bft)
25.01.2016 20:25 6,4 C 18,0 C 6,5 C 6,6 C 6,6 C 0,2 C 87 % 73 % 0 % 1025,4 hPa 0,0 l/m 3,7 km/h (1 Bft) SW 225 0 min 4,4 C 6,6 C 5,8 km/h (2 Bft)
25.01.2016 20:30 6,2 C 18,0 C 6,4 C 6,6 C 6,6 C 0,4 C 87 % 73 % 0 % 1025,7 hPa 0,0 l/m 3,7 km/h (1 Bft) SW 225 0 min 4,2 C 6,6 C 2,1 km/h (1 Bft)
25.01.2016 20:35 6,1 C 18,0 C 6,2 C 6,5 C 6,5 C 0,4 C 86 % 73 % 0 % 1025,7 hPa 0,0 l/m 2,6 km/h (1 Bft) O-NO 67 0 min 3,9 C 6,5 C 5,5 km/h (1 Bft)
25.01.2016 20:40 6,0 C 18,1 C 6,2 C 6,4 C 6,4 C 0,4 C 87 % 73 % 0 % 1025,7 hPa 0,0 l/m 1,8 km/h (1 Bft) SW 225 0 min 4,0 C 6,4 C 2,6 km/h (1 Bft)
25.01.2016 20:45 5,9 C 18,1 C 6,3 C 6,3 C 6,3 C 0,4 C 87 % 73 % 0 % 1025,7 hPa 0,0 l/m 2,1 km/h (1 Bft) NO 45 0 min 3,9 C 6,3 C 1,6 km/h (1 Bft)
25.01.2016 20:50 5,8 C 18,1 C 6,2 C 6,2 C 6,2 C 0,4 C 87 % 73 % 0 % 1025,7 hPa 0,0 l/m 1,9 km/h (1 Bft) W 270 0 min 3,8 C 6,2 C 3,1 km/h (1 Bft)
25.01.2016 20:55 5,9 C 18,1 C 6,1 C 6,2 C 6,2 C 0,3 C 87 % 73 % 0 % 1025,7 hPa 0,0 l/m 2,3 km/h (1 Bft) S 180 0 min 3,9 C 6,2 C 4,8 km/h (1 Bft)
25.01.2016 21:00 5,7 C 18,1 C 6,1 C 6,2 C 6,2 C 0,5 C 87 % 73 % 0 % 1025,7 hPa 0,0 l/m 2,6 km/h (1 Bft) S 180 0 min 3,7 C 6,2 C 2,9 km/h (1 Bft)
25.01.2016 21:05 5,8 C 18,1 C 6,3 C 6,2 C 6,2 C 0,4 C 87 % 73 % 0 % 1025,7 hPa 0,0 l/m 2,4 km/h (1 Bft) NW 315 0 min 3,8 C 6,2 C 2,9 km/h (1 Bft)
25.01.2016 21:10 5,9 C 18,1 C 6,3 C 6,2 C 6,2 C 0,3 C 87 % 73 % 0 % 1025,7 hPa 0,0 l/m 1,9 km/h (1 Bft) W-NW 292 0 min 3,9 C 6,2 C 3,7 km/h (1 Bft)
25.01.2016 21:15 5,9 C 18,1 C 6,3 C 6,2 C 6,2 C 0,3 C 88 % 73 % 0 % 1025,7 hPa 0,0 l/m 2,3 km/h (1 Bft) O-SO 112 0 min 4,1 C 6,2 C 9,5 km/h (2 Bft)
25.01.2016 21:20 6,1 C 18,1 C 6,3 C 6,1 C 6,1 C 0,0 C 88 % 73 % 0 % 1025,7 hPa 0,0 l/m 4,2 km/h (1 Bft) SO 135 0 min 4,3 C 6,1 C 4,5 km/h (1 Bft)
25.01.2016 21:25 6,1 C 18,1 C 6,3 C 6,0 C 5,8 C 0,0 C 88 % 73 % 0 % 1025,7 hPa 0,0 l/m 4,8 km/h (1 Bft) S 180 0 min 4,3 C 5,1 C 4,3 km/h (1 Bft)
25.01.2016 21:30 6,0 C 18,1 C 6,2 C 6,4 C 6,4 C 0,4 C 88 % 73 % 0 % 1025,7 hPa 0,0 l/m 2,6 km/h (1 Bft) N-NO 22 0 min 4,2 C 6,4 C 2,1 km/h (1 Bft)
25.01.2016 21:35 5,9 C 18,1 C 6,2 C 6,3 C 6,3 C 0,4 C 88 % 73 % 0 % 1025,7 hPa 0,0 l/m 1,6 km/h (1 Bft) S 180 0 min 4,1 C 6,3 C 2,7 km/h (1 Bft)
25.01.2016 21:41 5,9 C 18,1 C 6,3 C 6,2 C 6,2 C 0,3 C 88 % 73 % 0 % 1025,7 hPa 0,0 l/m 2,1 km/h (1 Bft) N 0 0 min 4,1 C 6,2 C 4,0 km/h (1 Bft)
25.01.2016 21:50 6,0 C 18,2 C 6,3 C 6,0 C 5,9 C 0,0 C 88 % 73 % 0 % 1025,1 hPa 0,0 l/m 4,5 km/h (1 Bft) S 180 0 min 4,2 C 5,9 C 7,7 km/h (2 Bft)
25.01.2016 21:55 6,0 C 18,2 C 6,2 C 6,2 C 6,2 C 0,2 C 88 % 73 % 0 % 1025,1 hPa 0,0 l/m 4,0 km/h (1 Bft) S-SO 157 0 min 4,2 C 6,2 C 4,2 km/h (1 Bft)
25.01.2016 22:00 6,0 C 18,2 C 6,3 C 6,4 C 6,4 C 0,4 C 88 % 73 % 0 % 1025,1 hPa 0,0 l/m 3,2 km/h (1 Bft) N-NW 337 0 min 4,2 C 6,4 C 0,0 km/h (0 Bft)
25.01.2016 22:05 5,9 C 18,2 C 6,0 C 6,3 C 6,3 C 0,4 C 88 % 73 % 0 % 1025,1 hPa 0,0 l/m 2,6 km/h (1 Bft) S-SW 202 0 min 4,1 C 6,3 C 3,1 km/h (1 Bft)
25.01.2016 22:10 5,9 C 18,2 C 6,0 C 6,2 C 6,2 C 0,3 C 88 % 73 % 0 % 1024,7 hPa 0,0 l/m 3,2 km/h (1 Bft) S 180 0 min 4,1 C 6,2 C 4,0 km/h (1 Bft)
25.01.2016 22:15 5,9 C 18,2 C 6,1 C 5,9 C 5,9 C 0,0 C 88 % 73 % 0 % 1024,7 hPa 0,0 l/m 3,9 km/h (1 Bft) S-SO 157 0 min 4,1 C 5,9 C 4,5 km/h (1 Bft)
25.01.2016 22:20 5,9 C 18,2 C 5,9 C 5,9 C 5,8 C 0,0 C 88 % 73 % 0 % 1024,7 hPa 0,0 l/m 4,0 km/h (1 Bft) S-SO 157 0 min 4,1 C 5,8 C 9,5 km/h (2 Bft)
25.01.2016 22:25 5,9 C 18,2 C 6,0 C 5,9 C 5,9 C 0,0 C 88 % 73 % 0 % 1024,7 hPa 0,0 l/m 4,0 km/h (1 Bft) S 180 0 min 4,1 C 5,9 C 7,1 km/h (2 Bft)
25.01.2016 22:30 5,9 C 18,2 C 5,9 C 6,2 C 6,2 C 0,3 C 88 % 73 % 0 % 1024,7 hPa 0,0 l/m 3,4 km/h (1 Bft) NW 315 0 min 4,1 C 6,2 C 0,0 km/h (0 Bft)
25.01.2016 22:35 5,7 C 18,3 C 5,9 C 6,1 C 6,1 C 0,4 C 88 % 73 % 0 % 1024,7 hPa 0,0 l/m 2,1 km/h (1 Bft) S-SW 202 0 min 3,9 C 6,1 C 3,2 km/h (1 Bft)
25.01.2016 22:40 5,9 C 18,3 C 5,9 C 6,1 C 6,1 C 0,2 C 88 % 73 % 0 % 1024,7 hPa 0,0 l/m 2,6 km/h (1 Bft) S 180 0 min 4,1 C 6,1 C 4,3 km/h (1 Bft)
25.01.2016 22:45 5,9 C 18,3 C 6,0 C 5,9 C 5,8 C 0,0 C 89 % 73 % 0 % 1024,7 hPa 0,0 l/m 4,2 km/h (1 Bft) S-SO 157 0 min 4,2 C 5,8 C 8,5 km/h (2 Bft)
25.01.2016 22:50 6,0 C 18,3 C 5,9 C 5,9 C 5,8 C 0,0 C 89 % 73 % 0 % 1025,1 hPa 0,0 l/m 4,2 km/h (1 Bft) S 180 0 min 4,3 C 5,8 C 4,3 km/h (1 Bft)
25.01.2016 22:55 5,9 C 18,3 C 5,9 C 6,3 C 6,3 C 0,4 C 88 % 73 % 0 % 1025,1 hPa 0,0 l/m 2,9 km/h (1 Bft) NO 45 0 min 4,1 C 6,3 C 0,0 km/h (0 Bft)
25.01.2016 23:00 5,7 C 18,3 C 5,6 C 6,1 C 6,1 C 0,4 C 88 % 73 % 0 % 1025,1 hPa 0,0 l/m 1,0 km/h (0 Bft) S 180 0 min 3,9 C 6,1 C 0,0 km/h (0 Bft)
25.01.2016 23:06 5,7 C 18,3 C 5,3 C 5,9 C 5,9 C 0,2 C 88 % 73 % 0 % 1025,1 hPa 0,0 l/m 0,2 km/h (0 Bft) W-NW 292 0 min 3,9 C 5,9 C 0,0 km/h (0 Bft)
25.01.2016 23:10 5,5 C 18,3 C 5,3 C 5,7 C 5,7 C 0,2 C 88 % 73 % 0 % 1024,8 hPa 0,0 l/m 0,3 km/h (0 Bft) S 180 0 min 3,7 C 5,7 C 1,8 km/h (1 Bft)
25.01.2016 23:15 5,5 C 18,3 C 5,5 C 5,7 C 5,7 C 0,2 C 88 % 73 % 0 % 1024,8 hPa 0,0 l/m 1,1 km/h (1 Bft) S-SW 202 0 min 3,7 C 5,7 C 4,2 km/h (1 Bft)
25.01.2016 23:20 5,6 C 18,2 C 5,5 C 5,8 C 5,8 C 0,2 C 88 % 74 % 0 % 1024,8 hPa 0,0 l/m 1,6 km/h (1 Bft) SO 135 0 min 3,8 C 5,8 C 5,3 km/h (1 Bft)
25.01.2016 23:25 5,6 C 18,2 C 5,7 C 5,8 C 5,8 C 0,2 C 88 % 74 % 0 % 1024,8 hPa 0,0 l/m 1,4 km/h (1 Bft) O-SO 112 0 min 3,8 C 5,8 C 4,5 km/h (1 Bft)
25.01.2016 23:30 5,6 C 18,2 C 5,6 C 5,9 C 5,9 C 0,3 C 88 % 74 % 0 % 1024,2 hPa 0,0 l/m 1,3 km/h (1 Bft) S 180 0 min 3,8 C 5,9 C 0,0 km/h (0 Bft)
25.01.2016 23:35 5,6 C 18,2 C 5,6 C 5,9 C 5,9 C 0,3 C 88 % 74 % 0 % 1024,2 hPa 0,0 l/m 1,0 km/h (0 Bft) O 90 0 min 3,8 C 5,9 C 0,0 km/h (0 Bft)
25.01.2016 23:40 5,7 C 18,2 C 5,5 C 5,9 C 5,9 C 0,2 C 88 % 74 % 0 % 1024,2 hPa 0,0 l/m 1,0 km/h (0 Bft) W 270 0 min 3,9 C 5,9 C 0,0 km/h (0 Bft)
25.01.2016 23:45 5,6 C 18,2 C 5,5 C 5,8 C 5,8 C 0,2 C 88 % 74 % 0 % 1024,2 hPa 0,0 l/m 0,6 km/h (0 Bft) W-NW 292 0 min 3,8 C 5,8 C 0,0 km/h (0 Bft)
25.01.2016 23:50 5,5 C 18,3 C 5,3 C 5,7 C 5,7 C 0,2 C 88 % 74 % 0 % 1023,6 hPa 0,0 l/m 0,6 km/h (0 Bft) W-SW 247 0 min 3,7 C 5,7 C 0,0 km/h (0 Bft)
25.01.2016 23:55 5,4 C 18,3 C 5,2 C 5,6 C 5,6 C 0,2 C 88 % 73 % 0 % 1023,6 hPa 0,0 l/m 0,8 km/h (0 Bft) O-SO 112 0 min 3,6 C 5,6 C 0,0 km/h (0 Bft)
_ Min-Zeit 00:15 18:50 03:20 00:15 00:15 05:05 19:30 13:30 00:00 23:50 - 03:20 - - - 00:15 00:15 02:10
Minimum _ 2,5 C 17,8 C 3,2 C 2,7 C 2,7 C 0,0 C 86 % 72 % 0 % 1023,6 hPa - 0,0 km/h (0 Bft) - - - 0,7 C 2,7 C 0,0 km/h (0 Bft)
_ Max-Zeit 14:40 22:35 14:15 14:20 14:20 14:20 10:30 00:00 14:20 00:00 02:10 19:00 - - 15:50 14:25 14:20 19:30
Maximum _ 8,1 C 18,3 C 8,5 C 10,0 C 10,0 C 2,1 C 92 % 88 % 55 % 1029,6 hPa 0,7 l/m 6,0 km/h
W-SW (2 Bft)
- - 9 min 6,6 C 10,0 C 14,8 km/h
W-SW (3 Bft)
Durchschnitt _ 5,6 C 18,0 C 6,0 C 6,6 C 6,6 C 1,0 C 90 % 75 % 12 % 1026,4 hPa #2,1 l/m 2,8 km/h (1 Bft) W-SW - #1:45 h 4,0 C 6,5 C 3,8 km/h (1 Bft)
2016 www.wetterstation-wechselburg.de